createdAt,value
2022-11-03T00:02:20.604Z,101140.05
2022-11-03T00:04:48.428Z,101143.20
2022-11-03T00:07:22.649Z,101145.84
2022-11-03T00:09:50.312Z,101144.34
2022-11-03T00:12:20.283Z,101146.63
2022-11-03T00:14:47.832Z,101146.52
2022-11-03T00:17:15.474Z,101149.03
2022-11-03T00:19:43.055Z,101148.60
2022-11-03T00:22:10.689Z,101150.25
2022-11-03T00:24:38.253Z,101147.39
2022-11-03T00:27:06.957Z,101144.20
2022-11-03T00:29:34.971Z,101142.72
2022-11-03T00:32:02.455Z,101137.08
2022-11-03T00:34:30.004Z,101143.92
2022-11-03T00:37:03.583Z,101152.65
2022-11-03T00:39:31.192Z,101150.30
2022-11-03T00:41:58.887Z,101146.55
2022-11-03T00:44:26.909Z,101142.61
2022-11-03T00:46:54.636Z,101145.09
2022-11-03T00:49:22.201Z,101146.85
2022-11-03T00:51:49.998Z,101144.98
2022-11-03T00:54:17.772Z,101147.64
2022-11-03T00:56:45.551Z,101151.48
2022-11-03T00:59:13.206Z,101146.67
2022-11-03T01:01:47.104Z,101142.72
2022-11-03T01:04:36.082Z,101143.96
2022-11-03T01:07:05.978Z,101150.77
2022-11-03T01:09:40.669Z,101146.81
2022-11-03T01:12:30.569Z,101146.98
2022-11-03T01:14:58.219Z,101148.73
2022-11-03T01:17:27.984Z,101147.88
2022-11-03T01:19:55.844Z,101145.81
2022-11-03T01:22:24.820Z,101148.91
2022-11-03T01:24:52.587Z,101149.44
2022-11-03T01:27:25.133Z,101147.38
2022-11-03T01:29:52.678Z,101145.32
2022-11-03T01:32:20.274Z,101145.52
2022-11-03T01:34:47.883Z,101143.30
2022-11-03T01:37:15.448Z,101142.50
2022-11-03T01:39:43.068Z,101139.95
2022-11-03T01:42:13.852Z,101135.31
2022-11-03T01:44:47.667Z,101133.63
2022-11-03T01:47:21.992Z,101133.67
2022-11-03T01:50:18.328Z,101130.60
2022-11-03T01:52:57.890Z,101132.23
2022-11-03T01:55:31.890Z,101137.63
2022-11-03T01:58:15.952Z,101139.22
2022-11-03T02:00:47.050Z,101133.20
2022-11-03T02:03:16.281Z,101133.41
2022-11-03T02:05:49.491Z,101129.64
2022-11-03T02:08:25.582Z,101134.70
2022-11-03T02:10:53.400Z,101135.09
2022-11-03T02:13:25.642Z,101134.77
2022-11-03T02:15:59.873Z,101134.47
2022-11-03T02:18:33.998Z,101132.08
2022-11-03T02:21:42.484Z,101127.45
2022-11-03T02:24:23.899Z,101127.70
2022-11-03T02:26:55.746Z,101122.22
2022-11-03T02:29:24.403Z,101120.88
2022-11-03T02:32:07.741Z,101118.98
2022-11-03T02:34:55.594Z,101116.27
2022-11-03T02:37:29.393Z,101118.40
2022-11-03T02:40:24.998Z,101117.93
2022-11-03T02:42:53.529Z,101117.65
2022-11-03T02:45:25.837Z,101121.46
2022-11-03T02:48:01.312Z,101124.61
2022-11-03T02:50:32.060Z,101125.50
2022-11-03T02:53:00.664Z,101128.12
2022-11-03T02:55:52.881Z,101127.95
2022-11-03T02:58:48.171Z,101127.48
2022-11-03T03:01:27.540Z,101122.50
2022-11-03T03:04:03.654Z,101119.91
2022-11-03T03:06:37.415Z,101115.95
2022-11-03T03:09:10.129Z,101114.92
2022-11-03T03:11:42.911Z,101113.73
2022-11-03T03:14:31.816Z,101110.30
2022-11-03T03:17:25.436Z,101109.83
2022-11-03T03:20:13.081Z,101111.23
2022-11-03T03:23:21.422Z,101108.69
2022-11-03T03:26:04.657Z,101106.66
2022-11-03T03:28:40.224Z,101109.64
2022-11-03T03:31:13.570Z,101106.54
2022-11-03T03:33:46.680Z,101108.45
2022-11-03T03:36:19.470Z,101104.16
2022-11-03T03:39:00.099Z,101102.98
2022-11-03T03:41:32.002Z,101105.27
2022-11-03T03:44:05.519Z,101105.28
2022-11-03T03:46:50.418Z,101100.80
2022-11-03T03:49:18.536Z,101098.04
2022-11-03T03:51:47.898Z,101100.27
2022-11-03T03:54:15.511Z,101101.48
2022-11-03T03:57:04.964Z,101100.79
2022-11-03T03:59:32.588Z,101097.84
2022-11-03T04:02:00.517Z,101097.68
2022-11-03T04:04:28.501Z,101092.34
2022-11-03T04:07:31.317Z,101089.09
2022-11-03T04:09:58.976Z,101091.74
2022-11-03T04:12:47.615Z,101094.52
2022-11-03T04:15:34.080Z,101094.04
2022-11-03T04:18:20.851Z,101090.95
2022-11-03T04:21:07.022Z,101095.27
2022-11-03T04:23:34.646Z,101095.95
2022-11-03T04:26:09.856Z,101093.72
2022-11-03T04:28:37.653Z,101097.36
2022-11-03T04:31:10.692Z,101098.60
2022-11-03T04:33:42.135Z,101097.23
2022-11-03T04:36:27.519Z,101092.23
2022-11-03T04:38:56.144Z,101090.02
2022-11-03T04:41:29.183Z,101089.52
2022-11-03T04:43:57.278Z,101084.16
2022-11-03T04:46:30.542Z,101078.27
2022-11-03T04:49:01.307Z,101080.20
2022-11-03T04:51:34.276Z,101080.22
2022-11-03T04:54:12.810Z,101079.71
2022-11-03T04:56:40.595Z,101077.45
2022-11-03T04:59:13.479Z,101072.27
2022-11-03T05:01:43.369Z,101072.46
2022-11-03T05:04:14.462Z,101074.20
2022-11-03T05:06:51.969Z,101078.20
2022-11-03T05:09:31.140Z,101076.84
2022-11-03T05:11:58.879Z,101075.63
2022-11-03T05:14:29.997Z,101073.74
2022-11-03T05:17:02.303Z,101075.48
2022-11-03T05:19:35.689Z,101075.67
2022-11-03T05:22:08.565Z,101076.88
2022-11-03T05:24:36.427Z,101072.74
2022-11-03T05:27:12.678Z,101072.92
2022-11-03T05:29:42.166Z,101068.27
2022-11-03T05:32:25.711Z,101069.30
2022-11-03T05:34:56.539Z,101073.08
2022-11-03T05:37:30.727Z,101075.84
2022-11-03T05:40:01.864Z,101076.33
2022-11-03T05:42:32.026Z,101077.70
2022-11-03T05:45:04.226Z,101080.29
2022-11-03T05:47:39.568Z,101079.78
2022-11-03T05:50:34.020Z,101078.76
2022-11-03T05:53:31.860Z,101081.70
2022-11-03T05:56:04.168Z,101078.92
2022-11-03T05:58:42.750Z,101075.13
2022-11-03T06:01:23.251Z,101074.97
2022-11-03T06:03:51.179Z,101077.57
2022-11-03T06:06:37.910Z,101083.61
2022-11-03T06:09:18.237Z,101077.58
2022-11-03T06:11:45.969Z,101077.04
2022-11-03T06:14:27.727Z,101083.40
2022-11-03T06:17:09.849Z,101082.88
2022-11-03T06:19:47.692Z,101081.98
2022-11-03T06:22:23.190Z,101086.66
2022-11-03T06:24:58.483Z,101090.48
2022-11-03T06:27:31.569Z,101096.18
2022-11-03T06:30:29.358Z,101095.14
2022-11-03T06:33:35.700Z,101097.91
2022-11-03T06:36:18.119Z,101097.36
2022-11-03T06:39:00.146Z,101100.30
2022-11-03T06:41:35.492Z,101102.21
2022-11-03T06:44:27.771Z,101109.80
2022-11-03T06:47:01.083Z,101104.63
2022-11-03T06:49:35.840Z,101104.45
2022-11-03T06:52:39.466Z,101104.59
2022-11-03T06:55:10.698Z,101105.63
2022-11-03T06:57:48.723Z,101106.29
2022-11-03T07:00:37.645Z,101104.41
2022-11-03T07:03:27.525Z,101103.71
2022-11-03T07:06:17.326Z,101101.65
2022-11-03T07:08:49.455Z,101096.62
2022-11-03T07:11:23.514Z,101096.25
2022-11-03T07:14:30.239Z,101097.30
2022-11-03T07:17:14.470Z,101097.12
2022-11-03T07:19:45.833Z,101095.52
2022-11-03T07:22:33.507Z,101094.60
2022-11-03T07:25:03.449Z,101091.10
2022-11-03T07:27:37.249Z,101086.52
2022-11-03T07:30:10.280Z,101083.70
2022-11-03T07:32:39.200Z,101079.31
2022-11-03T07:36:14.356Z,101076.95
2022-11-03T07:38:42.508Z,101076.81
2022-11-03T07:41:18.978Z,101073.10
2022-11-03T07:43:58.531Z,101068.71
2022-11-03T07:46:27.439Z,101070.71
2022-11-03T07:48:58.601Z,101067.50
2022-11-03T07:51:53.997Z,101067.52
2022-11-03T07:54:34.074Z,101063.02
2022-11-03T07:57:23.015Z,101060.39
2022-11-03T08:00:21.460Z,101058.38
2022-11-03T08:03:01.963Z,101058.01
2022-11-03T08:05:30.125Z,101057.49
2022-11-03T08:07:58.327Z,101053.54
2022-11-03T08:10:27.695Z,101050.98
2022-11-03T08:12:55.791Z,101049.33
2022-11-03T08:15:23.786Z,101044.39
2022-11-03T08:17:55.999Z,101045.88
2022-11-03T08:20:28.710Z,101044.08
2022-11-03T08:23:20.103Z,101043.27
2022-11-03T08:25:59.386Z,101043.46
2022-11-03T08:28:30.391Z,101035.73
2022-11-03T08:31:08.022Z,101026.75
2022-11-03T08:33:41.158Z,101023.70
2022-11-03T08:36:10.256Z,101018.42
2022-11-03T08:38:38.502Z,101012.61
2022-11-03T08:41:26.779Z,101011.66
2022-11-03T08:43:55.164Z,101006.83
2022-11-03T08:46:23.303Z,101005.12
2022-11-03T08:48:57.306Z,101004.33
2022-11-03T08:51:25.330Z,101001.61
2022-11-03T08:53:55.974Z,100995.56
2022-11-03T08:56:24.263Z,100991.17
2022-11-03T08:58:52.220Z,100985.23
2022-11-03T09:01:23.064Z,100983.92
2022-11-03T09:03:52.129Z,100977.52
2022-11-03T09:06:20.460Z,100978.52
2022-11-03T09:11:38.859Z,100971.22
2022-11-03T09:14:07.138Z,100969.67
2022-11-03T09:16:36.576Z,100967.66
2022-11-03T09:19:07.550Z,100966.11
2022-11-03T09:21:39.792Z,100964.50
2022-11-03T09:24:11.848Z,100959.36
2022-11-03T09:26:42.046Z,100951.92
2022-11-03T09:29:12.397Z,100951.54
2022-11-03T09:31:49.363Z,100947.86
2022-11-03T09:34:43.332Z,100939.42
2022-11-03T09:37:16.434Z,100937.93
2022-11-03T09:39:44.678Z,100935.77
2022-11-03T09:42:12.965Z,100933.22
2022-11-03T09:44:41.545Z,100930.66
2022-11-03T09:47:27.351Z,100925.00
2022-11-03T09:49:57.753Z,100924.11
2022-11-03T09:52:31.339Z,100914.44
2022-11-03T09:55:02.237Z,100916.30
2022-11-03T09:57:30.981Z,100913.69
2022-11-03T10:00:07.950Z,100910.43
2022-11-03T10:02:42.895Z,100909.17
2022-11-03T10:05:31.378Z,100906.56
2022-11-03T10:12:04.004Z,100910.81
2022-11-03T10:14:38.770Z,100909.48
2022-11-03T10:17:41.737Z,100907.69
2022-11-03T10:20:48.618Z,100903.40
2022-11-03T10:23:35.337Z,100897.02
2022-11-03T10:26:35.376Z,100898.93
2022-11-03T10:29:24.306Z,100895.67
2022-11-03T10:32:06.375Z,100895.19
2022-11-03T10:34:45.837Z,100888.70
2022-11-03T10:37:45.193Z,100893.91
2022-11-03T10:40:47.667Z,100891.19
2022-11-03T10:43:27.715Z,100889.20
2022-11-03T10:49:18.964Z,100880.56
2022-11-03T10:51:50.808Z,100876.20
2022-11-03T10:54:26.338Z,100872.14
2022-11-03T10:56:54.900Z,100869.80
2022-11-03T10:59:34.592Z,100873.27
2022-11-03T11:02:30.904Z,100869.83
2022-11-03T11:05:01.992Z,100867.42
2022-11-03T11:07:39.923Z,100866.24
2022-11-03T11:10:21.763Z,100864.29
2022-11-03T11:13:21.415Z,100852.83
2022-11-03T11:15:59.160Z,100851.38
2022-11-03T11:18:29.972Z,100849.03
2022-11-03T11:21:18.841Z,100849.25
2022-11-03T11:23:48.558Z,100843.59
2022-11-03T11:26:26.433Z,100840.02
2022-11-03T11:29:09.541Z,100834.10
2022-11-03T11:31:44.820Z,100826.46
2022-11-03T11:34:19.252Z,100820.03
2022-11-03T11:36:59.590Z,100814.17
2022-11-03T11:39:30.696Z,100809.29
2022-11-03T11:42:23.023Z,100799.73
2022-11-03T11:45:02.493Z,100795.78
2022-11-03T11:47:48.781Z,100789.23
2022-11-03T11:50:29.077Z,100781.38
2022-11-03T11:53:10.319Z,100776.36
2022-11-03T11:56:01.007Z,100767.43
2022-11-03T11:58:53.910Z,100761.06
2022-11-03T12:01:34.785Z,100753.90
2022-11-03T12:06:47.634Z,100742.98
2022-11-03T12:09:21.017Z,100745.60
2022-11-03T12:12:05.331Z,100744.09
2022-11-03T12:14:38.667Z,100738.29
2022-11-03T12:17:18.567Z,100735.48
2022-11-03T12:19:56.884Z,100731.23
2022-11-03T12:22:27.775Z,100726.03
2022-11-03T12:25:03.451Z,100723.14
2022-11-03T12:27:33.537Z,100725.79
2022-11-03T12:30:25.312Z,100722.70
2022-11-03T12:32:59.986Z,100719.10
2022-11-03T12:35:28.091Z,100714.73
2022-11-03T12:37:56.164Z,100710.73
2022-11-03T12:40:33.927Z,100708.52
2022-11-03T12:43:06.496Z,100708.71
2022-11-03T12:45:38.533Z,100706.95
2022-11-03T12:48:08.243Z,100703.97
2022-11-03T12:50:38.816Z,100699.88
2022-11-03T12:53:07.453Z,100697.33
2022-11-03T12:55:37.228Z,100686.81
2022-11-03T12:58:15.467Z,100681.56
2022-11-03T13:01:39.132Z,100676.85
2022-11-03T13:03:40.157Z,100673.20
2022-11-03T13:06:09.804Z,100668.44
2022-11-03T13:08:37.801Z,100664.80
2022-11-03T13:11:25.834Z,100658.95
2022-11-03T13:13:56.636Z,100653.52
2022-11-03T13:16:32.797Z,100648.22
2022-11-03T13:19:03.002Z,100644.27
2022-11-03T13:21:31.468Z,100641.39
2022-11-03T13:23:59.398Z,100637.23
2022-11-03T13:27:02.456Z,100631.30
2022-11-03T13:29:39.067Z,100625.88
2022-11-03T13:32:10.207Z,100617.33
2022-11-03T13:35:02.548Z,100611.98
2022-11-03T13:37:44.215Z,100602.77
2022-11-03T13:40:35.759Z,100604.34
2022-11-03T13:43:02.717Z,100598.73
2022-11-03T13:45:33.220Z,100596.10
2022-11-03T13:49:20.046Z,100596.34
2022-11-03T13:51:22.556Z,100593.44
2022-11-03T14:00:51.784Z,100579.34
2022-11-03T14:06:33.001Z,100578.57
2022-11-03T14:09:14.887Z,100572.62
2022-11-03T14:12:31.747Z,100564.45
2022-11-03T14:18:22.560Z,100558.31
2022-11-03T14:19:46.004Z,100552.24
2022-11-03T14:22:22.038Z,100551.89
2022-11-03T14:25:25.450Z,100549.68
2022-11-03T14:28:25.626Z,100545.33
2022-11-03T14:34:37.845Z,100539.58
2022-11-03T14:37:28.722Z,100539.05
2022-11-03T14:40:06.411Z,100537.23
2022-11-03T14:43:06.093Z,100530.00
2022-11-03T14:45:42.530Z,100525.59
2022-11-03T14:48:27.874Z,100516.77
2022-11-03T14:50:56.709Z,100513.38
2022-11-03T14:53:36.435Z,100508.17
2022-11-03T14:56:09.462Z,100505.42
2022-11-03T14:58:52.399Z,100501.53
2022-11-03T15:01:26.371Z,100496.73
2022-11-03T15:04:03.103Z,100495.47
2022-11-03T15:06:31.143Z,100492.95
2022-11-03T15:09:05.120Z,100489.32
2022-11-03T15:11:36.207Z,100485.57
2022-11-03T15:14:12.121Z,100484.59
2022-11-03T15:16:45.628Z,100485.55
2022-11-03T15:20:17.182Z,100486.51
2022-11-03T15:26:06.402Z,100486.75
2022-11-03T15:28:42.538Z,100485.41
2022-11-03T15:31:15.747Z,100486.35
2022-11-03T15:34:03.116Z,100489.06
2022-11-03T15:38:02.536Z,100484.30
2022-11-03T15:40:48.335Z,100480.41
2022-11-03T15:43:41.661Z,100479.11
2022-11-03T15:46:26.085Z,100475.14
2022-11-03T15:49:12.543Z,100464.99
2022-11-03T15:51:52.261Z,100460.59
2022-11-03T15:54:22.793Z,100460.13
2022-11-03T15:56:56.665Z,100457.27
2022-11-03T15:59:39.736Z,100452.45
2022-11-03T16:02:40.355Z,100448.04
2022-11-03T16:05:11.012Z,100446.85
2022-11-03T16:11:20.745Z,100438.27
2022-11-03T16:14:05.934Z,100438.78
2022-11-03T16:16:33.883Z,100437.42
2022-11-03T16:19:07.368Z,100437.11
2022-11-03T16:21:47.535Z,100436.64
2022-11-03T16:24:51.977Z,100437.23
2022-11-03T16:27:53.104Z,100435.17
2022-11-03T16:30:54.737Z,100427.15
2022-11-03T16:33:23.344Z,100426.55
2022-11-03T16:35:54.197Z,100427.73
2022-11-03T16:38:34.111Z,100421.94
2022-11-03T16:41:18.294Z,100419.70
2022-11-03T16:44:14.631Z,100421.65
2022-11-03T16:46:55.784Z,100418.52
2022-11-03T16:49:40.967Z,100411.52
2022-11-03T16:52:11.810Z,100403.73
2022-11-03T16:54:43.065Z,100400.53
2022-11-03T16:57:12.018Z,100398.84
2022-11-03T16:59:42.890Z,100394.80
2022-11-03T17:07:19.366Z,100378.71
2022-11-03T17:11:28.308Z,100372.72
2022-11-03T17:14:15.771Z,100371.77
2022-11-03T17:17:19.470Z,100373.02
2022-11-03T17:20:46.361Z,100369.58
2022-11-03T17:23:14.590Z,100362.46
2022-11-03T17:25:45.730Z,100358.60
2022-11-03T17:28:34.947Z,100357.36
2022-11-03T17:34:13.947Z,100346.81
2022-11-03T17:36:43.099Z,100342.98
2022-11-03T17:39:34.748Z,100349.55
2022-11-03T17:42:54.328Z,100342.30
2022-11-03T17:45:33.760Z,100335.28
2022-11-03T17:48:09.075Z,100335.48
2022-11-03T17:50:42.288Z,100334.85
2022-11-03T17:53:25.680Z,100331.42
2022-11-03T17:58:59.413Z,100324.67
2022-11-03T18:01:45.069Z,100323.17
2022-11-03T18:04:22.598Z,100321.48
2022-11-03T18:06:56.215Z,100314.63
2022-11-03T18:09:32.831Z,100308.92
2022-11-03T18:13:01.514Z,100300.64
2022-11-03T18:16:03.991Z,100288.16
2022-11-03T18:18:48.633Z,100281.21
2022-11-03T18:21:37.239Z,100278.17
2022-11-03T18:24:23.928Z,100269.56
2022-11-03T18:27:25.147Z,100259.12
2022-11-03T18:29:53.473Z,100250.35
2022-11-03T18:32:21.378Z,100246.20
2022-11-03T18:34:52.491Z,100241.36
2022-11-03T18:37:22.048Z,100236.70
2022-11-03T18:39:49.868Z,100232.92
2022-11-03T18:42:46.034Z,100227.76
2022-11-03T18:45:18.780Z,100227.05
2022-11-03T18:47:51.884Z,100223.23
2022-11-03T18:50:42.447Z,100216.51
2022-11-03T18:53:25.312Z,100215.11
2022-11-03T18:56:26.199Z,100209.45
2022-11-03T18:59:11.806Z,100201.67
2022-11-03T19:01:54.132Z,100199.85
2022-11-03T19:04:33.129Z,100193.75
2022-11-03T19:07:02.473Z,100188.34
2022-11-03T19:09:30.141Z,100180.37
2022-11-03T19:12:00.977Z,100173.31
2022-11-03T19:14:32.643Z,100171.46
2022-11-03T19:19:55.612Z,100162.16
2022-11-03T19:22:23.463Z,100158.38
2022-11-03T19:24:57.128Z,100158.06
2022-11-03T19:27:36.051Z,100147.84
2022-11-03T19:30:05.104Z,100140.08
2022-11-03T19:32:39.840Z,100130.64
2022-11-03T19:35:42.743Z,100121.62
2022-11-03T19:38:19.320Z,100118.39
2022-11-03T19:41:15.138Z,100112.39
2022-11-03T19:44:03.152Z,100112.86
2022-11-03T19:46:31.362Z,100099.48
2022-11-03T19:49:03.933Z,100094.39
2022-11-03T19:51:38.203Z,100092.65
2022-11-03T19:54:15.182Z,100092.02
2022-11-03T19:56:46.673Z,100084.69
2022-11-03T19:59:22.082Z,100079.98
2022-11-03T20:01:55.672Z,100076.29
2022-11-03T20:04:26.050Z,100072.02
2022-11-03T20:07:03.441Z,100067.27
2022-11-03T20:09:32.690Z,100070.27
2022-11-03T20:12:07.315Z,100064.58
2022-11-03T20:14:36.617Z,100058.61
2022-11-03T20:17:24.477Z,100057.88
2022-11-03T20:19:52.828Z,100055.34
2022-11-03T20:22:29.556Z,100052.24
2022-11-03T20:25:03.807Z,100047.79
2022-11-03T20:27:32.149Z,100049.17
2022-11-03T20:30:00.845Z,100043.70
2022-11-03T20:32:32.663Z,100039.51
2022-11-03T20:35:54.173Z,100039.35
2022-11-03T20:38:39.564Z,100036.66
2022-11-03T20:41:14.671Z,100033.66
2022-11-03T20:43:47.127Z,100033.56
2022-11-03T20:46:24.097Z,100027.89
2022-11-03T20:48:54.973Z,100023.38
2022-11-03T20:51:54.356Z,100019.52
2022-11-03T20:54:32.208Z,100014.88
2022-11-03T20:57:15.304Z,100011.58
2022-11-03T20:59:44.001Z,100016.80
2022-11-03T21:02:13.144Z,100014.58
2022-11-03T21:04:45.487Z,100007.06
2022-11-03T21:07:13.078Z,100001.80
2022-11-03T21:09:40.899Z,99998.46
2022-11-03T21:12:15.047Z,99996.11
2022-11-03T21:15:02.894Z,99996.96
2022-11-03T21:17:49.775Z,99991.95
2022-11-03T21:20:18.767Z,99991.23
2022-11-03T21:22:52.324Z,99986.05
2022-11-03T21:25:24.460Z,99983.02
2022-11-03T21:28:05.677Z,99980.34
2022-11-03T21:30:33.509Z,99973.23
2022-11-03T21:33:01.236Z,99966.76
2022-11-03T21:35:31.556Z,99959.29
2022-11-03T21:38:02.829Z,99955.15
2022-11-03T21:40:30.762Z,99948.77
2022-11-03T21:43:17.631Z,99944.41
2022-11-03T21:45:45.590Z,99945.91
2022-11-03T21:48:32.569Z,99940.48
2022-11-03T21:51:01.881Z,99931.34
2022-11-03T21:53:36.212Z,99927.63
2022-11-03T21:56:15.390Z,99922.70
2022-11-03T21:58:49.711Z,99918.75
2022-11-03T22:01:28.379Z,99915.44
2022-11-03T22:04:03.099Z,99910.89
2022-11-03T22:06:36.121Z,99909.27
2022-11-03T22:09:33.045Z,99908.28
2022-11-03T22:12:03.059Z,99904.63
2022-11-03T22:14:51.732Z,99902.09
2022-11-03T22:17:23.656Z,99891.86
2022-11-03T22:20:12.852Z,99895.02
2022-11-03T22:23:33.996Z,99892.11
2022-11-03T22:26:21.271Z,99883.71
2022-11-03T22:29:09.143Z,99880.63
2022-11-03T22:31:42.214Z,99882.98
2022-11-03T22:34:28.463Z,99879.84
2022-11-03T22:36:56.019Z,99873.02
2022-11-03T22:39:42.393Z,99867.94
2022-11-03T22:42:30.835Z,99863.44
2022-11-03T22:45:17.001Z,99862.79
2022-11-03T22:47:44.686Z,99859.13
2022-11-03T22:50:12.559Z,99854.39
2022-11-03T22:52:40.280Z,99850.52
2022-11-03T22:55:08.223Z,99848.35
2022-11-03T22:57:35.699Z,99840.48
2022-11-03T23:00:05.199Z,99838.73
2022-11-03T23:02:32.932Z,99831.81
2022-11-03T23:05:00.441Z,99824.64
2022-11-03T23:07:31.208Z,99817.27
2022-11-03T23:10:04.265Z,99812.30
2022-11-03T23:12:31.802Z,99810.08
2022-11-03T23:15:17.996Z,99807.52
2022-11-03T23:18:04.106Z,99802.53
2022-11-03T23:20:50.307Z,99796.21
2022-11-03T23:23:36.502Z,99794.89
2022-11-03T23:26:07.749Z,99791.33
2022-11-03T23:28:35.301Z,99791.20
2022-11-03T23:31:03.060Z,99788.48
2022-11-03T23:33:31.281Z,99785.45
2022-11-03T23:36:07.794Z,99780.73
2022-11-03T23:38:37.109Z,99776.79
2022-11-03T23:41:08.905Z,99778.48
2022-11-03T23:43:37.104Z,99777.47
2022-11-03T23:46:23.685Z,99775.34
2022-11-03T23:48:52.192Z,99774.04
2022-11-03T23:51:23.573Z,99766.45
2022-11-03T23:53:52.586Z,99760.11
2022-11-03T23:56:43.008Z,99758.40
2022-11-03T23:59:12.546Z,99751.98
